Terminal Aerodrome Forecast
Issued by NWS

Home | Current Version | Previous Version | Text Only | Print | Product List | Glossary On
Versions: 1 2 3 4 5 6 7 8 9 10 11 12 13 14
000
FTUS41 KBTV 041727
TAFPBG
TAF
KPBG 041727Z 0418/0518 26004KT P6SM BKN035
     FM042000 VRB03KT P6SM BKN060
     FM050900 15004KT P6SM VCSH OVC070
     FM051100 15005KT 2SM -SN BR OVC050=

USA.gov is the U.S. government's official web portal to all federal, state and local government web resources and services.